Time;durP1;ratioP1;P1;durP2;ratioP2;P2;SDS_P1;SDS_P2;PMS_P1;PMS_P2;Temp;Humidity;BMP_temperature;BMP_pressure;BME280_temperature;BME280_humidity;BME280_pressure;Samples;Min_cycle;Max_cycle;Signal;HPM_P1;HPM_P2
2023/06/17 03:17:00;;;;;;;7.97;3.50;;;15.50;72.60;;;;;;6199792;22;89430;-73
2023/06/17 03:19:27;;;;;;;8.52;3.40;;;15.50;72.80;;;;;;6249631;22;88755;-74
2023/06/17 03:21:52;;;;;;;6.57;3.60;;;15.50;73.00;;;;;;6248996;22;87374;-71
2023/06/17 03:24:19;;;;;;;6.25;2.85;;;15.40;72.80;;;;;;6250004;22;87307;-71
2023/06/17 03:26:45;;;;;;;7.63;3.42;;;15.50;73.20;;;;;;6248574;22;89514;-71
2023/06/17 03:29:11;;;;;;;11.02;3.15;;;15.50;73.10;;;;;;6250095;22;89225;-72
2023/06/17 03:31:36;;;;;;;6.38;3.28;;;15.50;72.90;;;;;;6249333;22;87347;-73
2023/06/17 03:34:02;;;;;;;7.07;3.40;;;15.60;72.90;;;;;;6249852;22;87538;-73
2023/06/17 03:36:29;;;;;;;6.93;3.25;;;15.60;72.70;;;;;;6221477;22;90790;-73
2023/06/17 03:38:56;;;;;;;7.97;3.45;;;15.60;72.80;;;;;;6250329;22;87270;-73
2023/06/17 03:41:22;;;;;;;7.40;2.80;;;15.70;72.50;;;;;;6249669;22;87438;-74
2023/06/17 03:43:48;;;;;;;6.30;3.25;;;15.70;72.00;;;;;;6250787;22;86414;-70
2023/06/17 03:46:14;;;;;;;10.95;3.17;;;15.80;71.90;;;;;;6249252;22;88097;-71
2023/06/17 03:48:39;;;;;;;6.32;2.95;;;15.80;71.60;;;;;;6249776;22;90540;-71
2023/06/17 03:51:06;;;;;;;8.68;3.13;;;15.90;71.50;;;;;;6249186;22;88303;-71
2023/06/17 03:53:31;;;;;;;5.68;3.38;;;16.10;70.80;;;;;;6249746;22;86926;-71
2023/06/17 03:55:57;;;;;;;5.65;2.83;;;16.40;69.90;;;;;;6249162;22;87601;-69
2023/06/17 03:58:24;;;;;;;6.95;3.60;;;16.70;68.70;;;;;;6249228;22;87940;-70
2023/06/17 04:00:50;;;;;;;9.25;3.30;;;17.00;68.00;;;;;;6249468;22;87317;-70
2023/06/17 04:03:18;;;;;;;10.23;3.67;;;17.30;67.60;;;;;;6248196;22;87308;-73
2023/06/17 04:05:44;;;;;;;7.88;3.03;;;17.50;66.70;;;;;;6249244;22;87727;-73
2023/06/17 04:08:10;;;;;;;5.78;2.97;;;17.70;66.00;;;;;;6249901;22;87767;-73
2023/06/17 04:10:36;;;;;;;8.27;2.88;;;18.00;64.90;;;;;;6249615;22;87265;-73
2023/06/17 04:13:02;;;;;;;8.02;3.35;;;18.30;63.80;;;;;;6250107;22;87284;-75
2023/06/17 04:15:27;;;;;;;8.02;3.38;;;18.70;62.90;;;;;;6248373;22;88255;-72
2023/06/17 04:17:53;;;;;;;5.82;3.05;;;19.00;61.80;;;;;;6225109;22;88898;-73
2023/06/17 04:20:19;;;;;;;7.43;4.00;;;19.30;60.80;;;;;;6218369;22;87439;-72
2023/06/17 04:22:45;;;;;;;8.13;3.42;;;19.70;60.80;;;;;;6218572;22;87352;-73
2023/06/17 04:25:15;;;;;;;7.13;3.90;;;20.10;58.80;;;;;;6218502;22;87153;-71
2023/06/17 04:27:40;;;;;;;9.60;3.83;;;20.50;58.30;;;;;;6217751;22;87672;-72
2023/06/17 04:30:08;;;;;;;6.07;3.65;;;20.70;57.00;;;;;;6218702;22;86906;-72
2023/06/17 04:32:35;;;;;;;8.68;3.95;;;21.00;56.30;;;;;;6219065;22;86535;-72
2023/06/17 04:35:03;;;;;;;7.82;4.40;;;21.30;55.80;;;;;;6218294;22;88076;-70
2023/06/17 04:37:30;;;;;;;6.47;3.03;;;21.80;55.00;;;;;;6218421;22;87292;-71
2023/06/17 04:39:56;;;;;;;9.30;3.80;;;22.10;54.70;;;;;;6217486;22;88277;-71
2023/06/17 04:42:23;;;;;;;8.02;4.00;;;22.20;53.30;;;;;;6218745;22;88734;-72
2023/06/17 04:44:49;;;;;;;7.82;3.13;;;22.40;53.00;;;;;;6217689;22;88495;-71
2023/06/17 04:47:16;;;;;;;6.53;3.05;;;22.50;53.70;;;;;;6218246;22;87331;-72
2023/06/17 04:49:44;;;;;;;7.93;3.95;;;22.70;52.90;;;;;;6219890;22;87343;-70
2023/06/17 04:52:13;;;;;;;8.77;4.63;;;23.00;52.40;;;;;;6220022;22;87188;-71
2023/06/17 04:54:39;;;;;;;9.50;5.43;;;23.50;51.70;;;;;;6219444;22;87533;-71
2023/06/17 04:57:05;;;;;;;8.48;4.32;;;23.70;51.10;;;;;;6219359;22;87766;-71
2023/06/17 04:59:31;;;;;;;6.28;4.45;;;24.10;50.30;;;;;;6219662;22;87313;-71
2023/06/17 05:01:57;;;;;;;7.43;4.32;;;24.30;49.60;;;;;;6219784;22;87279;-73
2023/06/17 05:04:22;;;;;;;9.82;4.88;;;24.70;49.20;;;;;;6219188;22;89119;-70
2023/06/17 05:06:48;;;;;;;8.02;4.28;;;24.90;48.10;;;;;;6219976;22;88827;-71
2023/06/17 05:09:14;;;;;;;8.07;4.13;;;25.30;47.70;;;;;;6219339;22;87183;-71
2023/06/17 05:11:42;;;;;;;7.28;4.00;;;25.50;47.20;;;;;;6220225;22;86907;-72
2023/06/17 05:14:08;;;;;;;12.38;4.18;;;25.70;46.50;;;;;;6218786;22;87977;-74
2023/06/17 05:16:34;;;;;;;8.57;3.88;;;26.20;46.20;;;;;;6218689;22;87774;-74
2023/06/17 05:18:59;;;;;;;8.75;4.70;;;26.60;45.30;;;;;;6219298;22;87646;-74
2023/06/17 05:21:25;;;;;;;7.38;3.95;;;27.10;44.10;;;;;;6219844;22;86709;-74
2023/06/17 05:23:51;;;;;;;7.93;3.90;;;27.40;43.70;;;;;;6219730;22;88335;-74
2023/06/17 05:26:17;;;;;;;11.45;4.72;;;27.60;44.20;;;;;;6220038;22;87813;-72
2023/06/17 05:28:43;;;;;;;9.45;4.28;;;28.50;42.50;;;;;;6219990;22;88346;-72
2023/06/17 05:31:11;;;;;;;6.15;3.92;;;28.80;41.90;;;;;;6220334;22;87392;-72
2023/06/17 05:33:37;;;;;;;7.07;4.47;;;29.10;42.30;;;;;;6220773;22;88310;-72
2023/06/17 05:36:03;;;;;;;4.85;4.22;;;30.00;41.70;;;;;;6220389;22;87272;-72
2023/06/17 05:38:30;;;;;;;7.32;4.90;;;31.00;41.00;;;;;;6193846;22;87003;-74
2023/06/17 05:40:56;;;;;;;6.70;4.28;;;31.10;39.50;;;;;;6221256;22;87302;-75
2023/06/17 05:43:25;;;;;;;6.65;4.85;;;31.30;40.50;;;;;;6220836;22;88268;-74
2023/06/17 05:45:51;;;;;;;12.45;5.05;;;31.80;40.40;;;;;;6220792;22;86883;-72
2023/06/17 05:48:16;;;;;;;7.15;4.38;;;32.30;40.10;;;;;;6220211;22;87257;-74
2023/06/17 05:50:42;;;;;;;5.60;4.50;;;32.60;39.10;;;;;;6219735;22;87327;-73
2023/06/17 05:53:07;;;;;;;8.25;4.80;;;32.50;37.90;;;;;;6218142;22;88987;-73
2023/06/17 05:55:33;;;;;;;8.50;5.50;;;32.70;37.60;;;;;;6218725;22;88812;-71
2023/06/17 05:57:59;;;;;;;6.55;5.35;;;33.20;38.50;;;;;;6219891;22;87339;-73
2023/06/17 06:00:24;;;;;;;6.25;5.35;;;33.80;37.50;;;;;;6219237;22;87499;-73
2023/06/17 06:02:50;;;;;;;5.78;3.58;;;33.50;36.10;;;;;;6219306;22;87526;-72
2023/06/17 06:05:16;;;;;;;10.77;5.85;;;33.30;37.70;;;;;;6218560;22;87912;-73
2023/06/17 06:07:43;;;;;;;11.57;5.43;;;33.80;36.40;;;;;;6219686;22;87311;-71
2023/06/17 06:10:10;;;;;;;9.35;4.80;;;33.90;35.50;;;;;;6219765;22;86582;-72
2023/06/17 06:12:36;;;;;;;8.45;5.82;;;34.20;35.90;;;;;;6218996;22;87758;-74
2023/06/17 06:15:03;;;;;;;11.40;6.03;;;34.00;36.20;;;;;;6219120;22;86978;-74
2023/06/17 06:17:29;;;;;;;9.55;5.47;;;34.10;36.60;;;;;;6217684;22;88306;-75
2023/06/17 06:19:55;;;;;;;7.80;5.57;;;34.70;35.70;;;;;;6219510;22;87219;-74
2023/06/17 06:22:21;;;;;;;9.77;5.30;;;35.00;36.10;;;;;;6218467;22;88155;-75
2023/06/17 06:24:47;;;;;;;11.43;6.15;;;35.30;35.10;;;;;;6219087;22;87552;-74
2023/06/17 06:27:13;;;;;;;9.05;5.65;;;34.80;34.30;;;;;;6219554;22;86922;-73
2023/06/17 06:29:38;;;;;;;6.93;5.13;;;35.00;34.10;;;;;;6219623;22;87146;-75
2023/06/17 06:32:04;;;;;;;9.32;5.45;;;34.90;34.80;;;;;;6219280;22;87399;-72
2023/06/17 06:34:30;;;;;;;9.93;5.55;;;35.20;35.20;;;;;;6219219;22;87210;-74
2023/06/17 06:36:58;;;;;;;9.50;6.82;;;35.90;34.00;;;;;;6219152;22;87638;-75
2023/06/17 06:39:24;;;;;;;6.85;5.57;;;36.00;33.60;;;;;;6219126;22;87373;-74
2023/06/17 06:41:50;;;;;;;8.73;6.10;;;36.50;34.00;;;;;;6218310;22;88558;-74
2023/06/17 06:44:16;;;;;;;6.03;5.38;;;37.40;34.20;;;;;;6218725;22;88715;-74
2023/06/17 06:46:42;;;;;;;7.13;5.75;;;37.90;34.00;;;;;;6218935;22;87213;-74
2023/06/17 06:49:08;;;;;;;6.50;5.72;;;38.40;34.10;;;;;;6219457;22;87423;-74
2023/06/17 06:51:34;;;;;;;7.80;6.65;;;38.60;33.30;;;;;;6218231;22;87352;-75
2023/06/17 06:53:59;;;;;;;8.50;6.68;;;39.20;32.40;;;;;;6218891;22;87652;-73
2023/06/17 06:56:25;;;;;;;9.85;4.88;;;39.60;33.60;;;;;;6218752;22;87797;-73
2023/06/17 06:58:51;;;;;;;6.35;4.65;;;39.80;33.30;;;;;;6219512;22;87682;-73
2023/06/17 07:01:16;;;;;;;5.95;5.10;;;39.80;32.40;;;;;;6218194;22;87629;-73
2023/06/17 07:03:42;;;;;;;10.68;7.38;;;40.60;31.70;;;;;;6217929;22;88127;-73
2023/06/17 07:06:08;;;;;;;10.20;6.82;;;41.30;30.40;;;;;;6188429;22;88201;-66
2023/06/17 07:08:34;;;;;;;9.23;6.63;;;41.00;31.00;;;;;;6218544;22;87650;-65
2023/06/17 07:11:00;;;;;;;8.23;7.05;;;40.90;30.70;;;;;;6218047;22;88237;-66
2023/06/17 07:13:26;;;;;;;9.05;7.07;;;40.90;32.50;;;;;;6218324;22;87684;-66
2023/06/17 07:15:52;;;;;;;9.05;7.25;;;41.50;31.70;;;;;;6218536;22;87253;-67
2023/06/17 07:18:18;;;;;;;9.55;7.20;;;41.30;32.70;;;;;;6218373;22;87587;-67
2023/06/17 07:20:43;;;;;;;10.00;8.18;;;41.60;33.00;;;;;;6218158;22;88186;-67
2023/06/17 07:23:09;;;;;;;9.25;7.38;;;41.80;30.80;;;;;;6218098;22;87795;-66
2023/06/17 07:25:36;;;;;;;11.57;7.38;;;41.40;31.10;;;;;;6217360;22;87469;-66
2023/06/17 07:28:02;;;;;;;14.10;7.40;;;41.90;30.00;;;;;;6217085;22;87482;-67
2023/06/17 07:30:29;;;;;;;8.48;7.25;;;41.70;29.20;;;;;;6213472;22;91116;-67
2023/06/17 07:32:55;;;;;;;12.82;8.20;;;41.30;29.70;;;;;;6217987;22;88730;-67
2023/06/17 07:35:21;;;;;;;7.82;7.03;;;41.80;31.40;;;;;;6217919;22;87489;-67
2023/06/17 07:37:46;;;;;;;10.55;8.18;;;42.50;30.50;;;;;;6217389;22;88813;-67
2023/06/17 07:40:13;;;;;;;10.68;8.82;;;42.60;31.60;;;;;;6217658;22;87670;-68
2023/06/17 07:42:38;;;;;;;10.52;8.40;;;42.90;31.70;;;;;;6215411;22;88343;-67
2023/06/17 07:45:07;;;;;;;14.40;8.70;;;43.60;31.90;;;;;;6189485;22;87123;-67
2023/06/17 07:47:33;;;;;;;11.10;7.93;;;44.20;31.10;;;;;;6217767;22;86738;-67
2023/06/17 07:49:59;;;;;;;16.13;8.82;;;43.70;29.90;;;;;;6216536;22;88124;-68
2023/06/17 07:52:24;;;;;;;12.38;7.15;;;42.80;30.60;;;;;;6217034;22;87781;-68
2023/06/17 07:54:51;;;;;;;10.05;8.88;;;42.60;29.80;;;;;;6215574;22;88290;-68
2023/06/17 07:57:17;;;;;;;10.45;8.18;;;43.50;32.00;;;;;;6217107;22;87371;-68
2023/06/17 07:59:43;;;;;;;10.23;8.85;;;43.60;31.30;;;;;;6217435;22;87373;-68
2023/06/17 08:02:09;;;;;;;10.95;9.80;;;43.70;31.70;;;;;;6216353;22;88108;-68
2023/06/17 08:04:35;;;;;;;11.50;9.05;;;43.60;31.50;;;;;;6215922;22;87320;-67
2023/06/17 08:07:01;;;;;;;7.97;6.15;;;44.00;31.60;;;;;;6216794;22;87085;-67
2023/06/17 08:09:27;;;;;;;12.60;9.05;;;44.30;31.10;;;;;;6215467;22;87597;-67
2023/06/17 08:11:53;;;;;;;12.52;9.05;;;44.50;31.30;;;;;;6217069;22;87844;-67
2023/06/17 08:14:19;;;;;;;10.93;9.85;;;44.40;30.40;;;;;;6216642;22;87506;-67
2023/06/17 08:16:45;;;;;;;12.13;9.20;;;44.60;31.60;;;;;;6216821;22;87331;-67
2023/06/17 08:19:11;;;;;;;6.95;6.25;;;44.30;30.60;;;;;;6215187;22;88892;-67
2023/06/17 08:21:37;;;;;;;9.88;8.35;;;44.60;31.50;;;;;;6213247;22;88310;-68
2023/06/17 08:24:21;;;;;;;11.30;10.30;;;44.50;31.60;;;;;;6218726;22;87276;-68
2023/06/17 08:26:48;;;;;;;11.18;9.43;;;44.30;30.50;;;;;;6217480;22;87264;-68
2023/06/17 08:29:15;;;;;;;14.73;11.23;;;44.20;32.00;;;;;;6217081;22;87302;-67
2023/06/17 08:31:48;;;;;;;12.10;9.38;;;44.40;31.60;;;;;;6217297;22;87177;-68
2023/06/17 08:34:15;;;;;;;11.27;10.20;;;44.20;30.90;;;;;;6218607;22;87456;-68
2023/06/17 08:36:45;;;;;;;9.93;8.88;;;44.60;31.00;;;;;;6217697;22;86572;-68
2023/06/17 08:39:11;;;;;;;14.52;9.98;;;45.30;30.80;;;;;;6217973;22;87800;-67
2023/06/17 08:41:41;;;;;;;12.10;10.80;;;45.70;30.30;;;;;;6217075;22;87851;-68
2023/06/17 08:44:10;;;;;;;11.88;10.77;;;45.70;30.50;;;;;;6216674;22;87909;-68
2023/06/17 08:46:36;;;;;;;11.88;10.68;;;46.00;29.70;;;;;;6218247;22;86925;-68
2023/06/17 08:49:02;;;;;;;13.70;10.50;;;45.30;30.30;;;;;;6217551;22;87824;-68
2023/06/17 08:51:28;;;;;;;11.65;10.48;;;45.20;30.80;;;;;;6215742;22;87277;-67
2023/06/17 08:53:55;;;;;;;10.18;8.60;;;44.90;30.50;;;;;;6216524;22;87312;-67
2023/06/17 08:56:21;;;;;;;12.73;11.43;;;44.70;30.80;;;;;;6218081;22;87184;-67
2023/06/17 08:58:47;;;;;;;14.43;9.45;;;44.10;30.10;;;;;;6217276;22;87657;-67
2023/06/17 09:01:14;;;;;;;12.80;11.60;;;44.40;31.30;;;;;;6217373;22;87126;-67
2023/06/17 09:03:43;;;;;;;17.88;12.05;;;44.40;30.90;;;;;;6217243;22;87605;-67
2023/06/17 09:06:17;;;;;;;13.05;11.85;;;45.10;31.40;;;;;;6218710;22;87368;-67
2023/06/17 09:08:43;;;;;;;11.30;10.25;;;45.30;31.40;;;;;;6216641;22;88487;-67
2023/06/17 09:11:10;;;;;;;15.77;8.05;;;46.00;30.50;;;;;;6217314;22;88704;-68
2023/06/17 09:13:36;;;;;;;11.57;10.48;;;46.00;30.50;;;;;;6217606;22;87235;-67
2023/06/17 09:16:02;;;;;;;11.32;10.23;;;46.40;30.10;;;;;;6216432;22;87228;-68
2023/06/17 09:18:31;;;;;;;12.40;10.90;;;46.30;29.70;;;;;;6214991;22;88344;-67
2023/06/17 09:20:57;;;;;;;13.23;9.82;;;45.90;30.50;;;;;;6214795;22;87887;-67
2023/06/17 09:23:23;;;;;;;15.05;9.57;;;46.40;30.60;;;;;;6217065;22;87352;-67
2023/06/17 09:26:03;;;;;;;14.00;10.70;;;46.90;29.90;;;;;;6219219;22;86317;-67
2023/06/17 09:28:29;;;;;;;15.98;10.45;;;46.80;29.90;;;;;;6217297;22;87561;-67
2023/06/17 09:30:57;;;;;;;12.77;10.93;;;46.60;30.70;;;;;;6212808;22;87464;-67
2023/06/17 09:33:27;;;;;;;15.38;10.48;;;46.30;31.10;;;;;;6215971;22;88234;-67
2023/06/17 09:36:06;;;;;;;13.10;10.45;;;46.50;30.00;;;;;;6216516;22;87140;-67
2023/06/17 09:38:31;;;;;;;13.52;11.23;;;47.10;30.70;;;;;;6215389;22;87725;-66
2023/06/17 09:41:02;;;;;;;12.90;11.70;;;46.50;30.60;;;;;;6214449;22;87693;-67
2023/06/17 09:43:27;;;;;;;10.13;8.85;;;46.40;30.00;;;;;;6216173;22;87364;-66
2023/06/17 09:45:59;;;;;;;10.70;9.70;;;46.50;29.70;;;;;;6219024;22;87269;-66
2023/06/17 09:48:32;;;;;;;11.48;10.48;;;46.20;29.20;;;;;;6219153;22;89415;-66
2023/06/17 09:50:58;;;;;;;13.73;10.48;;;45.80;30.00;;;;;;6218370;22;87875;-66
2023/06/17 09:53:29;;;;;;;10.38;9.07;;;45.10;29.90;;;;;;6217737;22;87442;-66
2023/06/17 09:55:59;;;;;;;9.50;8.60;;;44.00;31.30;;;;;;6217005;22;87577;-66
2023/06/17 09:58:30;;;;;;;12.82;8.75;;;43.60;31.50;;;;;;6215959;22;88137;-66
2023/06/17 10:01:06;;;;;;;9.07;8.00;;;43.40;32.30;;;;;;6218925;22;90519;-66
2023/06/17 10:03:37;;;;;;;8.63;7.72;;;43.10;31.50;;;;;;6218986;22;87341;-66
2023/06/17 10:06:08;;;;;;;8.88;6.95;;;42.50;32.00;;;;;;6218126;22;86944;-65
2023/06/17 10:08:43;;;;;;;11.57;7.13;;;41.00;32.80;;;;;;6218201;22;87472;-65
2023/06/17 10:11:12;;;;;;;8.57;6.20;;;39.60;32.60;;;;;;6218359;22;87258;-65
2023/06/17 10:13:40;;;;;;;7.32;5.25;;;37.80;35.00;;;;;;6218849;22;87264;-66
2023/06/17 10:16:10;;;;;;;9.90;5.32;;;36.30;36.90;;;;;;6218312;22;86244;-66
2023/06/17 10:18:38;;;;;;;9.18;5.78;;;35.80;37.40;;;;;;6217594;22;88120;-65
2023/06/17 10:21:07;;;;;;;7.28;5.53;;;35.50;38.30;;;;;;6214587;22;87228;-67
2023/06/17 10:23:36;;;;;;;10.95;5.15;;;34.80;37.30;;;;;;6217477;22;88404;-66
2023/06/17 10:26:08;;;;;;;9.52;4.70;;;34.20;39.00;;;;;;6218300;22;87263;-64
2023/06/17 10:28:54;;;;;;;8.77;5.00;;;33.80;38.40;;;;;;6217368;22;87528;-65
2023/06/17 10:31:25;;;;;;;8.32;5.32;;;33.20;37.10;;;;;;6214316;22;87746;-66
2023/06/17 10:33:54;;;;;;;6.90;5.03;;;32.90;38.90;;;;;;6213193;22;87222;-65
2023/06/17 10:36:21;;;;;;;6.68;4.50;;;32.80;39.60;;;;;;6216280;22;87369;-65
2023/06/17 10:38:58;;;;;;;10.45;4.57;;;32.40;38.80;;;;;;6216580;22;88484;-66
2023/06/17 10:41:57;;;;;;;7.65;4.50;;;32.00;37.80;;;;;;6218224;22;88090;-65
2023/06/17 10:44:26;;;;;;;5.82;4.13;;;31.70;41.10;;;;;;6218263;22;87259;-65
2023/06/17 10:46:53;;;;;;;6.40;3.88;;;31.80;40.20;;;;;;6219328;22;87443;-65
2023/06/17 10:49:19;;;;;;;7.22;3.50;;;31.70;40.50;;;;;;6217328;22;89059;-65
2023/06/17 10:51:46;;;;;;;6.10;3.55;;;31.50;35.80;;;;;;6217668;22;88532;-65
2023/06/17 10:54:11;;;;;;;10.15;4.00;;;31.40;36.60;;;;;;6219204;22;87356;-64
2023/06/17 10:56:53;;;;;;;9.73;3.83;;;31.10;34.20;;;;;;6217641;22;87449;-64
2023/06/17 10:59:26;;;;;;;7.15;3.85;;;30.80;35.10;;;;;;6216325;22;88108;-65
2023/06/17 11:01:58;;;;;;;6.20;3.47;;;30.70;35.40;;;;;;6214751;22;87656;-64
2023/06/17 11:04:26;;;;;;;6.28;3.47;;;30.40;33.00;;;;;;6213196;22;87504;-67
2023/06/17 11:06:52;;;;;;;5.22;3.30;;;30.40;33.00;;;;;;6213170;22;86818;-67
2023/06/17 11:09:17;;;;;;;7.50;3.80;;;30.30;34.10;;;;;;6213011;22;88676;-67
2023/06/17 11:11:43;;;;;;;4.90;3.80;;;30.10;33.80;;;;;;6214259;22;87455;-67
2023/06/17 11:14:09;;;;;;;10.20;3.55;;;30.10;36.30;;;;;;6215690;22;87851;-67
2023/06/17 11:16:34;;;;;;;7.40;3.42;;;30.20;35.90;;;;;;6214411;22;87129;-65
2023/06/17 11:19:00;;;;;;;9.68;3.63;;;30.40;37.30;;;;;;6215669;22;88378;-65
2023/06/17 11:21:26;;;;;;;8.98;3.40;;;30.60;37.30;;;;;;6216426;22;87520;-66
2023/06/17 11:23:52;;;;;;;5.20;2.83;;;30.70;34.10;;;;;;6216938;22;87482;-68
2023/06/17 11:26:18;;;;;;;6.20;3.63;;;30.50;38.70;;;;;;6217023;22;87636;-65
2023/06/17 11:28:44;;;;;;;4.53;3.47;;;30.40;31.90;;;;;;6212426;22;88104;-65
2023/06/17 11:31:10;;;;;;;4.07;3.00;;;30.30;36.10;;;;;;6217101;22;86809;-66
2023/06/17 11:33:36;;;;;;;7.78;3.05;;;30.60;38.20;;;;;;6216507;22;87286;-65
2023/06/17 11:36:03;;;;;;;6.07;3.25;;;30.70;35.50;;;;;;6216587;22;87489;-65
2023/06/17 11:38:30;;;;;;;5.80;3.20;;;30.80;32.70;;;;;;6215710;22;88274;-65
2023/06/17 11:40:57;;;;;;;4.30;3.35;;;30.50;31.30;;;;;;6215790;22;88861;-66
2023/06/17 11:43:27;;;;;;;4.15;2.70;;;30.40;30.70;;;;;;6216312;22;87356;-65
2023/06/17 11:45:57;;;;;;;8.50;3.45;;;30.40;34.60;;;;;;6216847;22;87538;-65
2023/06/17 11:48:29;;;;;;;4.82;3.80;;;30.40;28.70;;;;;;6216374;22;88646;-65
2023/06/17 11:50:56;;;;;;;5.35;2.88;;;30.10;30.30;;;;;;6215675;22;87938;-66
2023/06/17 11:53:49;;;;;;;7.32;2.97;;;29.80;29.90;;;;;;6217068;22;87471;-66
2023/06/17 11:56:17;;;;;;;6.95;2.85;;;29.60;30.40;;;;;;6211741;22;86519;-65
2023/06/17 11:58:44;;;;;;;8.05;2.67;;;29.50;29.20;;;;;;6215883;22;89000;-65
2023/06/17 12:01:12;;;;;;;5.63;2.53;;;29.50;29.60;;;;;;6215755;22;87344;-65
2023/06/17 12:03:38;;;;;;;5.72;1.92;;;29.50;32.90;;;;;;6215145;22;88292;-65
2023/06/17 12:06:04;;;;;;;6.18;3.03;;;29.40;32.60;;;;;;6216151;22;87464;-66
2023/06/17 12:08:39;;;;;;;8.20;2.40;;;29.50;31.80;;;;;;6216122;22;88068;-67
2023/06/17 12:11:07;;;;;;;5.32;2.88;;;29.70;33.90;;;;;;6218120;22;87796;-66
2023/06/17 12:13:40;;;;;;;6.78;2.92;;;29.70;31.60;;;;;;6218296;22;87331;-66
2023/06/17 12:16:10;;;;;;;6.22;3.40;;;29.70;32.40;;;;;;6216997;22;87405;-65
2023/06/17 12:18:36;;;;;;;6.13;2.95;;;29.60;33.30;;;;;;6218189;22;87995;-66
2023/06/17 12:21:09;;;;;;;6.25;3.05;;;29.40;31.60;;;;;;6190931;22;88487;-65
2023/06/17 12:23:35;;;;;;;6.20;3.35;;;29.40;31.60;;;;;;6218633;22;87441;-66
2023/06/17 12:26:01;;;;;;;10.15;3.75;;;29.30;32.00;;;;;;6217499;22;87346;-73
2023/06/17 12:28:27;;;;;;;7.47;3.15;;;29.40;32.00;;;;;;6190023;22;90314;-71
2023/06/17 12:30:52;;;;;;;5.32;3.13;;;29.60;34.20;;;;;;6216940;22;88635;-71
2023/06/17 12:33:18;;;;;;;7.95;2.88;;;29.80;32.70;;;;;;6218816;22;87403;-72
2023/06/17 12:35:44;;;;;;;4.35;2.67;;;29.70;32.30;;;;;;6218426;22;87267;-71
2023/06/17 12:38:09;;;;;;;8.65;2.28;;;29.80;34.00;;;;;;6218256;22;87620;-73
2023/06/17 12:40:35;;;;;;;10.23;3.80;;;29.80;36.10;;;;;;6218638;22;87940;-76
2023/06/17 12:43:01;;;;;;;8.32;3.45;;;30.00;34.20;;;;;;6218642;22;87303;-72
2023/06/17 12:45:27;;;;;;;7.63;3.20;;;30.10;35.20;;;;;;6219099;22;86554;-73
2023/06/17 12:47:52;;;;;;;7.82;3.28;;;30.30;33.30;;;;;;6218579;22;88720;-70
2023/06/17 12:50:19;;;;;;;5.78;2.65;;;30.40;36.20;;;;;;6217678;22;87769;-70
2023/06/17 12:52:44;;;;;;;6.50;3.50;;;30.20;35.70;;;;;;6217148;22;88250;-72
2023/06/17 12:55:10;;;;;;;5.28;3.17;;;30.20;35.00;;;;;;6218569;22;87365;-74
2023/06/17 12:57:36;;;;;;;5.15;2.22;;;30.40;35.60;;;;;;6217781;22;87528;-71
2023/06/17 13:00:03;;;;;;;4.78;3.00;;;30.40;32.30;;;;;;6217753;22;87793;-70
2023/06/17 13:02:33;;;;;;;5.68;2.88;;;30.30;33.10;;;;;;6218061;22;87377;-72
2023/06/17 13:04:59;;;;;;;7.03;3.08;;;30.30;34.30;;;;;;6218126;22;87280;-71
2023/06/17 13:07:25;;;;;;;7.68;2.88;;;30.40;34.70;;;;;;6217524;22;88307;-71
2023/06/17 13:09:51;;;;;;;7.43;3.10;;;30.40;34.30;;;;;;6219576;22;87742;-71
2023/06/17 13:12:17;;;;;;;5.78;3.33;;;30.30;32.70;;;;;;6219562;22;87454;-71
2023/06/17 13:14:42;;;;;;;5.47;3.28;;;30.20;33.80;;;;;;6219707;22;87317;-69
2023/06/17 13:17:09;;;;;;;6.35;3.00;;;30.10;32.10;;;;;;6218206;22;88579;-72
2023/06/17 13:19:35;;;;;;;7.85;3.25;;;29.90;32.60;;;;;;6218629;22;89582;-70
2023/06/17 13:22:00;;;;;;;6.85;3.70;;;30.10;33.20;;;;;;6219471;22;87066;-71
2023/06/17 13:24:27;;;;;;;7.43;3.28;;;30.10;32.80;;;;;;6219733;22;87071;-73
2023/06/17 13:26:52;;;;;;;4.55;2.20;;;30.10;31.70;;;;;;6218824;22;88110;-73
2023/06/17 13:29:21;;;;;;;4.30;2.58;;;30.00;33.30;;;;;;6219456;22;88159;-70
2023/06/17 13:31:47;;;;;;;4.78;3.08;;;29.90;34.10;;;;;;6219825;22;87376;-72
2023/06/17 13:34:13;;;;;;;6.10;3.00;;;29.80;34.10;;;;;;6219932;22;86682;-71
2023/06/17 13:36:42;;;;;;;6.70;3.33;;;29.90;35.40;;;;;;6219247;22;87922;-73
2023/06/17 13:39:09;;;;;;;7.15;2.97;;;29.80;31.30;;;;;;6219604;22;87328;-74
2023/06/17 13:41:34;;;;;;;9.18;3.33;;;29.80;34.70;;;;;;6218585;22;88270;-70
2023/06/17 13:44:00;;;;;;;6.93;3.80;;;29.90;32.50;;;;;;6219486;22;87616;-70
2023/06/17 13:46:26;;;;;;;7.82;3.22;;;29.80;31.80;;;;;;6218752;22;88378;-72
2023/06/17 13:48:51;;;;;;;4.55;2.65;;;29.50;32.60;;;;;;6218780;22;88366;-72
2023/06/17 13:51:18;;;;;;;6.13;2.58;;;29.50;32.10;;;;;;6219001;22;87415;-71
2023/06/17 13:53:43;;;;;;;9.85;3.50;;;29.60;33.00;;;;;;6219566;22;86959;-72
2023/06/17 13:56:10;;;;;;;5.93;3.60;;;29.60;30.70;;;;;;6218905;22;87899;-70
2023/06/17 13:58:36;;;;;;;6.28;2.20;;;29.50;34.00;;;;;;6219598;22;87881;-73
2023/06/17 14:01:02;;;;;;;6.43;3.38;;;29.50;32.00;;;;;;6219120;22;87403;-72
2023/06/17 14:03:27;;;;;;;4.78;2.55;;;29.40;32.00;;;;;;6219284;22;87431;-70
2023/06/17 14:05:53;;;;;;;5.18;3.08;;;29.40;31.00;;;;;;6218507;22;88431;-71
2023/06/17 14:08:19;;;;;;;5.28;3.03;;;29.30;32.10;;;;;;6219041;22;88609;-72
2023/06/17 14:10:44;;;;;;;5.43;3.47;;;29.20;35.50;;;;;;6219144;22;86956;-74
2023/06/17 14:13:10;;;;;;;6.57;3.58;;;29.30;32.10;;;;;;6219914;22;87436;-71
2023/06/17 14:15:36;;;;;;;6.70;3.42;;;29.30;31.70;;;;;;6219068;22;87670;-72
2023/06/17 14:18:02;;;;;;;5.32;3.50;;;29.20;31.60;;;;;;6218926;22;87769;-71
2023/06/17 14:20:27;;;;;;;7.10;3.45;;;29.00;32.30;;;;;;6218652;22;87184;-70
2023/06/17 14:22:56;;;;;;;5.57;3.53;;;28.90;32.30;;;;;;6219751;22;86387;-71
2023/06/17 14:25:22;;;;;;;;;;;28.90;32.40;;;;;;6219644;22;87329;-73
2023/06/17 14:27:48;;;;;;;7.05;3.30;;;28.90;32.10;;;;;;6220763;22;87895;-72
2023/06/17 14:30:15;;;;;;;6.53;3.38;;;28.80;32.70;;;;;;6218771;22;88279;-72
2023/06/17 14:32:45;;;;;;;4.25;3.17;;;28.90;33.10;;;;;;6219374;22;87323;-71
2023/06/17 14:35:14;;;;;;;5.10;3.67;;;28.90;33.20;;;;;;6218844;22;87314;-74
2023/06/17 14:37:41;;;;;;;5.55;3.63;;;28.90;32.20;;;;;;6219129;22;87306;-70
2023/06/17 14:40:10;;;;;;;5.93;3.20;;;28.90;32.80;;;;;;6219177;22;87379;-70
2023/06/17 14:42:38;;;;;;;7.82;3.35;;;28.90;33.90;;;;;;6219204;22;87464;-72
2023/06/17 14:45:08;;;;;;;6.78;3.17;;;29.00;33.40;;;;;;6219073;22;87871;-71
2023/06/17 14:47:35;;;;;;;6.97;2.78;;;29.00;34.60;;;;;;6219351;22;88425;-72
2023/06/17 14:50:01;;;;;;;5.05;2.80;;;29.10;32.70;;;;;;6219076;22;87648;-73
2023/06/17 14:52:26;;;;;;;5.20;3.30;;;29.10;31.80;;;;;;6219505;22;87351;-71
2023/06/17 14:54:52;;;;;;;6.32;3.22;;;29.00;32.00;;;;;;6217812;22;89130;-71
2023/06/17 14:57:18;;;;;;;7.30;3.25;;;29.00;32.60;;;;;;6218804;22;88694;-70
2023/06/17 14:59:44;;;;;;;5.78;3.03;;;29.00;32.00;;;;;;6218926;22;87304;-71
2023/06/17 15:02:20;;;;;;;7.43;3.72;;;29.00;33.30;;;;;;6219140;22;87561;-74
2023/06/17 15:04:46;;;;;;;4.15;2.35;;;29.10;33.40;;;;;;6218516;22;88250;-72
2023/06/17 15:07:12;;;;;;;6.25;2.97;;;29.10;33.10;;;;;;6218847;22;87252;-72
2023/06/17 15:09:40;;;;;;;5.55;3.25;;;29.10;33.60;;;;;;6218723;22;88307;-73
2023/06/17 15:12:10;;;;;;;4.95;2.72;;;29.00;32.70;;;;;;6219634;22;86571;-70
2023/06/17 15:14:36;;;;;;;7.15;3.08;;;29.10;33.90;;;;;;6217115;22;88694;-72
2023/06/17 15:17:03;;;;;;;5.50;3.50;;;29.10;33.60;;;;;;6216486;22;88247;-72
2023/06/17 15:19:30;;;;;;;4.43;2.70;;;29.10;32.30;;;;;;6217923;22;88422;-68
2023/06/17 15:21:56;;;;;;;5.70;3.10;;;29.10;32.10;;;;;;6218905;22;87031;-73
2023/06/17 15:24:23;;;;;;;6.43;3.08;;;29.10;35.20;;;;;;6191315;22;89224;-71
2023/06/17 15:26:49;;;;;;;7.88;2.92;;;29.00;32.50;;;;;;6218633;22;88106;-74
2023/06/17 15:29:15;;;;;;;6.70;3.00;;;28.90;32.00;;;;;;6218999;22;87261;-71
2023/06/17 15:31:41;;;;;;;4.55;2.70;;;28.90;32.30;;;;;;6218809;22;88681;-70
2023/06/17 15:34:07;;;;;;;6.03;3.53;;;28.90;32.10;;;;;;6218824;22;87634;-70
2023/06/17 15:36:33;;;;;;;5.18;3.33;;;28.80;31.60;;;;;;6218564;22;88122;-72
2023/06/17 15:39:01;;;;;;;7.82;3.60;;;28.90;32.10;;;;;;6218707;22;87312;-71
2023/06/17 15:41:27;;;;;;;4.28;3.13;;;29.00;33.60;;;;;;6219096;22;87358;-70
2023/06/17 15:43:54;;;;;;;6.75;3.03;;;28.90;31.70;;;;;;6217656;22;89001;-71
2023/06/17 15:46:20;;;;;;;6.35;3.45;;;28.80;31.70;;;;;;6218666;22;88700;-72
2023/06/17 15:48:47;;;;;;;5.38;3.55;;;28.70;31.80;;;;;;6218935;22;88573;-72
2023/06/17 15:51:12;;;;;;;5.88;3.13;;;28.70;31.90;;;;;;6218894;22;87369;-72
2023/06/17 15:53:38;;;;;;;6.03;3.28;;;28.70;32.90;;;;;;6218275;22;87442;-70
2023/06/17 15:56:04;;;;;;;5.90;2.42;;;28.80;32.30;;;;;;6218612;22;88414;-73
2023/06/17 15:58:31;;;;;;;6.70;3.83;;;28.90;33.70;;;;;;6218328;22;87404;-72